createdAt,value
2022-09-03T00:01:11.747Z,1.27
2022-09-03T00:03:46.056Z,1.60
2022-09-03T00:06:18.323Z,1.53
2022-09-03T00:08:52.505Z,1.70
2022-09-03T00:11:25.686Z,1.70
2022-09-03T00:14:03.221Z,1.70
2022-09-03T00:16:44.596Z,1.57
2022-09-03T00:19:17.634Z,1.37
2022-09-03T00:21:52.133Z,1.77
2022-09-03T00:24:24.679Z,1.77
2022-09-03T00:26:58.795Z,1.87
2022-09-03T00:29:35.734Z,1.90
2022-09-03T00:32:10.707Z,1.67
2022-09-03T00:34:43.495Z,1.60
2022-09-03T00:37:15.285Z,1.50
2022-09-03T00:39:44.412Z,1.43
2022-09-03T00:42:38.512Z,1.80
2022-09-03T00:45:33.902Z,1.30
2022-09-03T00:48:19.458Z,1.20
2022-09-03T00:51:12.946Z,1.30
2022-09-03T00:53:52.371Z,1.30
2022-09-03T00:56:31.273Z,2.00
2022-09-03T00:59:15.191Z,1.40
2022-09-03T01:01:52.341Z,1.20
2022-09-03T01:04:39.914Z,1.20
2022-09-03T01:07:19.592Z,1.87
2022-09-03T01:09:54.860Z,1.37
2022-09-03T01:12:43.024Z,1.50
2022-09-03T01:15:19.368Z,1.50
2022-09-03T01:18:05.273Z,1.47
2022-09-03T01:20:55.747Z,1.40
2022-09-03T01:24:07.406Z,1.50
2022-09-03T01:26:55.225Z,1.40
2022-09-03T01:29:29.771Z,1.27
2022-09-03T01:32:08.576Z,1.60
2022-09-03T01:34:50.408Z,1.40
2022-09-03T01:37:33.347Z,1.07
2022-09-03T01:40:14.500Z,1.47
2022-09-03T01:43:01.447Z,1.50
2022-09-03T01:45:51.247Z,1.37
2022-09-03T01:48:44.308Z,1.47
2022-09-03T01:51:21.661Z,1.70
2022-09-03T01:54:43.680Z,1.23
2022-09-03T01:57:38.311Z,1.30
2022-09-03T02:00:13.454Z,1.47
2022-09-03T02:02:47.446Z,1.27
2022-09-03T02:05:22.878Z,1.30
2022-09-03T02:08:00.998Z,1.30
2022-09-03T02:10:34.303Z,1.50
2022-09-03T02:13:08.151Z,1.27
2022-09-03T02:15:42.078Z,1.40
2022-09-03T02:18:18.012Z,1.83
2022-09-03T02:20:48.263Z,1.30
2022-09-03T02:23:18.115Z,1.60
2022-09-03T02:26:00.231Z,1.27
2022-09-03T02:28:30.991Z,1.30
2022-09-03T02:31:00.147Z,1.50
2022-09-03T02:33:39.277Z,1.30
2022-09-03T02:36:11.622Z,1.30
2022-09-03T02:38:42.672Z,1.37
2022-09-03T02:41:15.060Z,1.37
2022-09-03T02:43:50.434Z,1.50
2022-09-03T02:46:24.382Z,1.77
2022-09-03T02:48:54.492Z,1.67
2022-09-03T02:51:22.968Z,1.30
2022-09-03T02:53:51.924Z,1.60
2022-09-03T02:56:20.301Z,1.50
2022-09-03T02:58:48.701Z,1.37
2022-09-03T03:01:23.983Z,1.40
2022-09-03T03:03:54.725Z,1.10
2022-09-03T03:06:23.247Z,1.60
2022-09-03T03:08:52.267Z,1.10
2022-09-03T03:11:22.345Z,1.40
2022-09-03T03:13:50.783Z,1.23
2022-09-03T03:16:20.130Z,1.10
2022-09-03T03:18:48.765Z,1.30
2022-09-03T03:21:20.089Z,1.50
2022-09-03T03:23:48.521Z,1.77
2022-09-03T03:26:19.526Z,1.60
2022-09-03T03:28:48.821Z,1.40
2022-09-03T03:31:19.866Z,1.20
2022-09-03T03:33:53.159Z,1.70
2022-09-03T03:36:24.828Z,1.40
2022-09-03T03:38:55.913Z,1.60
2022-09-03T03:41:26.809Z,2.00
2022-09-03T03:43:56.428Z,1.50
2022-09-03T03:46:26.151Z,1.27
2022-09-03T03:48:55.049Z,1.43
2022-09-03T03:51:24.826Z,1.60
2022-09-03T03:53:57.183Z,1.43
2022-09-03T03:56:27.508Z,1.40
2022-09-03T03:58:57.240Z,1.33
2022-09-03T04:01:28.075Z,1.50
2022-09-03T04:03:57.796Z,1.30
2022-09-03T04:06:29.039Z,1.50
2022-09-03T04:08:57.776Z,1.27
2022-09-03T04:11:26.628Z,1.30
2022-09-03T04:13:55.665Z,1.47
2022-09-03T04:16:26.254Z,1.47
2022-09-03T04:18:55.847Z,1.20
2022-09-03T04:21:28.483Z,1.47
2022-09-03T04:23:58.598Z,1.60
2022-09-03T04:26:31.423Z,1.20
2022-09-03T04:29:01.079Z,1.50
2022-09-03T04:31:30.614Z,1.33
2022-09-03T04:34:00.658Z,1.40
2022-09-03T04:36:32.032Z,1.57
2022-09-03T04:39:02.691Z,1.87
2022-09-03T04:41:33.009Z,1.10
2022-09-03T04:44:01.963Z,1.30
2022-09-03T04:46:33.983Z,1.60
2022-09-03T04:49:03.210Z,1.90
2022-09-03T04:51:33.028Z,1.60
2022-09-03T04:54:03.575Z,1.33
2022-09-03T04:56:34.533Z,1.53
2022-09-03T04:59:06.375Z,1.30
2022-09-03T05:01:37.062Z,1.70
2022-09-03T05:04:06.997Z,1.40
2022-09-03T05:06:38.417Z,1.43
2022-09-03T05:09:07.713Z,1.70
2022-09-03T05:11:36.136Z,2.00
2022-09-03T05:14:05.943Z,1.50
2022-09-03T05:16:34.495Z,2.00
2022-09-03T05:19:03.692Z,1.70
2022-09-03T05:21:32.218Z,1.70
2022-09-03T05:24:02.976Z,1.80
2022-09-03T05:26:34.093Z,1.40
2022-09-03T05:29:07.649Z,1.70
2022-09-03T05:31:39.319Z,1.50
2022-09-03T05:34:10.132Z,1.90
2022-09-03T05:36:42.430Z,1.90
2022-09-03T05:39:12.178Z,1.63
2022-09-03T05:41:40.568Z,1.67
2022-09-03T05:44:09.282Z,1.60
2022-09-03T05:46:38.182Z,1.70
2022-09-03T05:49:08.610Z,1.60
2022-09-03T05:51:39.497Z,1.50
2022-09-03T05:54:08.719Z,1.63
2022-09-03T05:56:41.312Z,1.40
2022-09-03T05:59:13.720Z,1.87
2022-09-03T06:01:47.793Z,1.47
2022-09-03T06:04:20.806Z,1.67
2022-09-03T06:06:50.074Z,1.50
2022-09-03T06:09:20.854Z,1.40
2022-09-03T06:11:50.835Z,1.60
2022-09-03T06:14:22.075Z,2.03
2022-09-03T06:16:52.868Z,1.40
2022-09-03T06:19:21.849Z,1.57
2022-09-03T06:21:50.237Z,1.80
2022-09-03T06:24:23.219Z,1.80
2022-09-03T06:26:56.554Z,1.60
2022-09-03T06:29:24.937Z,1.67
2022-09-03T06:31:53.393Z,1.80
2022-09-03T06:34:22.803Z,1.80
2022-09-03T06:36:54.661Z,1.77
2022-09-03T06:39:23.533Z,1.80
2022-09-03T06:41:53.152Z,1.83
2022-09-03T06:44:29.772Z,1.80
2022-09-03T06:47:01.409Z,1.60
2022-09-03T06:49:30.756Z,1.70
2022-09-03T06:51:59.105Z,1.60
2022-09-03T06:54:27.504Z,1.80
2022-09-03T06:56:56.023Z,2.07
2022-09-03T06:59:24.409Z,2.03
2022-09-03T07:01:55.203Z,1.97
2022-09-03T07:04:24.977Z,1.60
2022-09-03T07:06:53.354Z,1.73
2022-09-03T07:09:21.759Z,1.90
2022-09-03T07:11:50.155Z,1.53
2022-09-03T07:14:21.314Z,2.20
2022-09-03T07:16:50.963Z,1.80
2022-09-03T07:19:20.826Z,1.93
2022-09-03T07:21:50.765Z,2.13
2022-09-03T07:24:22.266Z,2.00
2022-09-03T07:26:51.311Z,1.80
2022-09-03T07:29:21.768Z,2.10
2022-09-03T07:31:53.036Z,2.00
2022-09-03T07:34:26.576Z,2.00
2022-09-03T07:36:55.457Z,1.90
2022-09-03T07:39:24.174Z,1.90
2022-09-03T07:41:52.658Z,2.00
2022-09-03T07:44:21.571Z,2.40
2022-09-03T07:46:51.914Z,2.07
2022-09-03T07:49:23.072Z,1.90
2022-09-03T07:51:54.040Z,3.77
2022-09-03T07:54:24.205Z,2.60
2022-09-03T07:56:52.875Z,2.40
2022-09-03T07:59:23.065Z,2.40
2022-09-03T08:01:52.253Z,2.50
2022-09-03T08:04:23.004Z,2.23
2022-09-03T08:06:55.459Z,2.77
2022-09-03T08:09:24.069Z,2.50
2022-09-03T08:11:52.527Z,2.70
2022-09-03T08:14:20.924Z,2.40
2022-09-03T08:16:49.457Z,2.43
2022-09-03T08:19:19.359Z,2.83
2022-09-03T08:21:49.271Z,2.13
2022-09-03T08:24:21.057Z,2.57
2022-09-03T08:26:52.233Z,2.17
2022-09-03T08:29:22.044Z,2.53
2022-09-03T08:31:50.766Z,2.47
2022-09-03T08:34:19.477Z,2.73
2022-09-03T08:36:50.509Z,2.77
2022-09-03T08:39:20.113Z,3.00
2022-09-03T08:42:33.331Z,3.00
2022-09-03T08:45:04.413Z,3.40
2022-09-03T08:47:39.287Z,3.30
2022-09-03T08:50:18.214Z,4.03
2022-09-03T08:52:51.479Z,3.80
2022-09-03T08:55:26.690Z,4.00
2022-09-03T08:58:03.314Z,4.33
2022-09-03T09:00:48.995Z,4.53
2022-09-03T09:03:44.380Z,4.73
2022-09-03T09:06:23.344Z,4.77
2022-09-03T09:09:06.756Z,4.27
2022-09-03T09:11:49.966Z,4.60
2022-09-03T09:14:26.919Z,4.73
2022-09-03T09:17:10.075Z,4.63
2022-09-03T09:19:48.171Z,3.70
2022-09-03T09:22:26.786Z,7.00
2022-09-03T09:25:00.694Z,5.03
2022-09-03T09:27:30.875Z,4.20
2022-09-03T09:30:02.993Z,5.20
2022-09-03T09:32:32.070Z,4.40
2022-09-03T09:35:00.439Z,3.70
2022-09-03T09:37:29.095Z,4.07
2022-09-03T09:40:02.268Z,3.37
2022-09-03T09:42:31.788Z,3.13
2022-09-03T09:45:12.147Z,3.93
2022-09-03T09:47:41.659Z,3.30
2022-09-03T09:50:25.996Z,3.40
2022-09-03T09:53:05.440Z,3.37
2022-09-03T09:55:37.572Z,3.50
2022-09-03T09:58:14.447Z,3.33
2022-09-03T10:00:43.230Z,4.30
2022-09-03T10:03:13.807Z,3.90
2022-09-03T10:05:43.889Z,3.90
2022-09-03T10:08:22.753Z,3.73
2022-09-03T10:10:53.203Z,3.73
2022-09-03T10:13:26.026Z,4.27
2022-09-03T10:16:00.226Z,3.47
2022-09-03T10:18:40.688Z,4.00
2022-09-03T10:21:15.619Z,3.50
2022-09-03T10:24:03.633Z,4.10
2022-09-03T10:26:38.371Z,4.47
2022-09-03T10:29:09.570Z,4.20
2022-09-03T10:31:56.970Z,4.30
2022-09-03T10:34:37.985Z,3.80
2022-09-03T10:37:20.810Z,3.70
2022-09-03T10:40:00.787Z,5.07
2022-09-03T10:42:45.691Z,4.30
2022-09-03T10:45:21.320Z,4.27
2022-09-03T10:48:27.995Z,4.40
2022-09-03T10:51:00.620Z,3.70
2022-09-03T10:53:44.639Z,3.60
2022-09-03T10:56:18.448Z,3.83
2022-09-03T10:59:33.970Z,3.60
2022-09-03T11:02:20.552Z,4.37
2022-09-03T11:04:57.943Z,4.30
2022-09-03T11:07:33.920Z,4.10
2022-09-03T11:10:15.151Z,4.23
2022-09-03T11:12:48.843Z,3.90
2022-09-03T11:15:29.592Z,4.10
2022-09-03T11:18:05.754Z,4.50
2022-09-03T11:20:35.177Z,5.03
2022-09-03T11:23:07.010Z,3.53
2022-09-03T11:25:45.433Z,4.00
2022-09-03T11:28:28.432Z,4.20
2022-09-03T11:31:14.730Z,4.40
2022-09-03T11:33:47.626Z,4.80
2022-09-03T11:36:30.510Z,5.60
2022-09-03T11:39:00.561Z,4.90
2022-09-03T11:41:34.899Z,4.73
2022-09-03T11:44:18.572Z,4.70
2022-09-03T11:46:57.744Z,4.33
2022-09-03T11:49:31.475Z,5.13
2022-09-03T11:52:02.642Z,4.97
2022-09-03T11:54:34.615Z,5.27
2022-09-03T11:57:14.012Z,4.00
2022-09-03T11:59:45.075Z,4.43
2022-09-03T12:02:28.237Z,4.40
2022-09-03T12:05:21.301Z,5.07
2022-09-03T12:08:42.510Z,4.50
2022-09-03T12:11:30.455Z,9.73
2022-09-03T12:14:13.950Z,4.37
2022-09-03T12:17:19.349Z,3.90
2022-09-03T12:19:53.832Z,3.80
2022-09-03T12:22:24.739Z,4.87
2022-09-03T12:24:53.596Z,3.80
2022-09-03T12:27:25.341Z,3.80
2022-09-03T12:29:59.952Z,3.30
2022-09-03T12:32:32.674Z,3.17
2022-09-03T12:35:57.707Z,3.50
2022-09-03T12:38:06.948Z,3.97
2022-09-03T12:41:27.096Z,3.93
2022-09-03T12:43:38.618Z,3.07
2022-09-03T12:46:16.460Z,3.33
2022-09-03T12:51:49.064Z,3.00
2022-09-03T12:54:20.134Z,3.63
2022-09-03T12:56:56.170Z,3.60
2022-09-03T12:59:27.855Z,3.17
2022-09-03T13:02:01.972Z,3.73
2022-09-03T13:04:36.129Z,4.20
2022-09-03T13:07:08.185Z,3.73
2022-09-03T13:09:39.738Z,3.60
2022-09-03T13:12:08.977Z,9.40
2022-09-03T13:14:47.284Z,3.93
2022-09-03T13:17:49.793Z,3.40
2022-09-03T13:20:32.206Z,4.00
2022-09-03T13:23:16.860Z,3.00
2022-09-03T13:25:57.207Z,3.10
2022-09-03T13:28:41.714Z,3.70
2022-09-03T13:31:27.062Z,3.80
2022-09-03T13:34:02.808Z,3.10
2022-09-03T13:36:39.919Z,3.60
2022-09-03T13:39:27.236Z,3.90
2022-09-03T13:42:06.984Z,3.57
2022-09-03T13:44:44.559Z,5.00
2022-09-03T13:47:29.124Z,3.80
2022-09-03T13:50:22.206Z,3.77
2022-09-03T13:52:59.431Z,3.80
2022-09-03T13:55:34.732Z,4.30
2022-09-03T13:58:08.194Z,3.30
2022-09-03T14:00:44.841Z,3.37
2022-09-03T14:03:26.818Z,3.10
2022-09-03T14:06:08.914Z,3.40
2022-09-03T14:09:00.624Z,3.20
2022-09-03T14:11:37.012Z,2.73
2022-09-03T14:14:17.675Z,2.20
2022-09-03T14:16:51.631Z,3.07
2022-09-03T14:19:30.119Z,2.50
2022-09-03T14:22:03.170Z,3.00
2022-09-03T14:24:47.221Z,3.33
2022-09-03T14:27:25.739Z,3.10
2022-09-03T14:30:00.339Z,3.40
2022-09-03T14:32:42.342Z,2.67
2022-09-03T14:35:34.645Z,6.63
2022-09-03T14:39:03.743Z,7.13
2022-09-03T14:42:14.124Z,3.83
2022-09-03T14:45:30.947Z,2.90
2022-09-03T14:48:31.874Z,2.80
2022-09-03T14:51:20.905Z,2.67
2022-09-03T14:54:28.797Z,2.80
2022-09-03T14:57:14.956Z,3.00
2022-09-03T15:00:04.828Z,2.50
2022-09-03T15:03:30.623Z,2.53
2022-09-03T15:06:16.628Z,2.60
2022-09-03T15:09:01.295Z,2.43
2022-09-03T15:11:34.062Z,2.83
2022-09-03T15:14:11.925Z,2.70
2022-09-03T15:16:52.892Z,2.60
2022-09-03T15:19:52.426Z,2.60
2022-09-03T15:22:38.938Z,2.50
2022-09-03T15:25:21.803Z,2.80
2022-09-03T15:28:08.720Z,2.57
2022-09-03T15:30:46.030Z,2.53
2022-09-03T15:33:25.334Z,2.83
2022-09-03T15:36:19.532Z,2.20
2022-09-03T15:38:56.545Z,2.07
2022-09-03T15:41:42.718Z,2.37
2022-09-03T15:44:19.473Z,1.80
2022-09-03T15:46:58.819Z,2.00
2022-09-03T15:49:46.359Z,2.30
2022-09-03T15:52:31.546Z,2.40
2022-09-03T15:55:09.062Z,2.47
2022-09-03T15:57:47.688Z,2.00
2022-09-03T16:00:21.494Z,2.60
2022-09-03T16:03:00.216Z,2.10
2022-09-03T16:05:41.231Z,2.20
2022-09-03T16:08:21.043Z,2.43
2022-09-03T16:11:03.692Z,2.80
2022-09-03T16:13:49.393Z,1.90
2022-09-03T16:16:26.276Z,2.40
2022-09-03T16:19:04.485Z,2.80
2022-09-03T16:21:40.707Z,2.97
2022-09-03T16:24:19.093Z,2.47
2022-09-03T16:26:56.684Z,2.23
2022-09-03T16:29:31.056Z,2.27
2022-09-03T16:32:27.211Z,2.80
2022-09-03T16:35:11.775Z,2.53
2022-09-03T16:38:11.105Z,2.53
2022-09-03T16:40:47.786Z,2.70
2022-09-03T16:43:40.688Z,2.60
2022-09-03T16:46:26.057Z,2.90
2022-09-03T16:49:27.016Z,3.00
2022-09-03T16:52:07.743Z,3.33
2022-09-03T16:54:55.937Z,2.97
2022-09-03T16:57:44.195Z,2.90
2022-09-03T17:00:15.360Z,2.67
2022-09-03T17:03:33.857Z,5.60
2022-09-03T17:06:41.608Z,5.47
2022-09-03T17:09:27.105Z,5.40
2022-09-03T17:12:08.644Z,4.50
2022-09-03T17:15:01.305Z,3.97
2022-09-03T17:17:49.913Z,7.20
2022-09-03T17:20:24.616Z,5.17
2022-09-03T17:23:09.708Z,5.53
2022-09-03T17:25:41.819Z,6.27
2022-09-03T17:28:26.228Z,3.17
2022-09-03T17:30:59.929Z,1.80
2022-09-03T17:33:58.645Z,1.77
2022-09-03T17:36:31.454Z,2.00
2022-09-03T17:39:23.620Z,1.97
2022-09-03T17:41:55.457Z,1.70
2022-09-03T17:44:43.356Z,2.40
2022-09-03T17:47:53.244Z,4.83
2022-09-03T17:50:26.263Z,1.70
2022-09-03T17:52:58.711Z,1.33
2022-09-03T17:55:35.036Z,1.30
2022-09-03T17:58:14.508Z,1.07
2022-09-03T18:00:53.593Z,1.17
2022-09-03T18:03:30.205Z,1.70
2022-09-03T18:06:01.968Z,1.90
2022-09-03T18:08:37.667Z,2.27
2022-09-03T18:11:12.829Z,1.93
2022-09-03T18:13:52.509Z,2.60
2022-09-03T18:16:28.530Z,2.77
2022-09-03T18:19:04.835Z,2.53
2022-09-03T18:21:56.919Z,3.20
2022-09-03T18:24:50.772Z,2.33
2022-09-03T18:27:41.514Z,1.70
2022-09-03T18:30:31.503Z,2.10
2022-09-03T18:33:18.065Z,1.50
2022-09-03T18:36:05.441Z,2.17
2022-09-03T18:38:55.230Z,1.70
2022-09-03T18:42:11.924Z,1.10
2022-09-03T18:45:22.162Z,1.70
2022-09-03T18:48:27.646Z,2.17
2022-09-03T18:51:24.254Z,1.70
2022-09-03T18:54:26.182Z,2.07
2022-09-03T18:57:13.469Z,3.20
2022-09-03T19:00:28.576Z,2.33
2022-09-03T19:03:44.455Z,4.13
2022-09-03T19:06:42.489Z,3.80
2022-09-03T19:09:39.489Z,3.63
2022-09-03T19:12:41.244Z,3.30
2022-09-03T19:15:33.879Z,2.97
2022-09-03T19:18:34.010Z,2.20
2022-09-03T19:21:31.551Z,2.60
2022-09-03T19:24:21.172Z,3.50
2022-09-03T19:27:47.712Z,2.00
2022-09-03T19:30:28.933Z,2.33
2022-09-03T19:33:32.765Z,2.00
2022-09-03T19:36:28.776Z,2.33
2022-09-03T19:39:32.525Z,2.30
2022-09-03T19:42:29.604Z,2.30
2022-09-03T19:45:29.376Z,2.07
2022-09-03T19:48:28.281Z,1.70
2022-09-03T19:51:26.052Z,1.67
2022-09-03T19:54:13.541Z,1.80
2022-09-03T19:57:00.500Z,1.57
2022-09-03T19:59:55.288Z,2.20
2022-09-03T20:02:42.977Z,2.50
2022-09-03T20:05:36.128Z,2.00
2022-09-03T20:08:24.775Z,2.30
2022-09-03T20:10:59.040Z,3.33
2022-09-03T20:13:27.601Z,2.33
2022-09-03T20:16:02.906Z,3.10
2022-09-03T20:18:43.877Z,3.30
2022-09-03T20:21:21.944Z,2.13
2022-09-03T20:23:59.457Z,1.93
2022-09-03T20:26:43.205Z,3.57
2022-09-03T20:29:51.673Z,4.10
2022-09-03T20:32:43.091Z,5.40
2022-09-03T20:35:20.450Z,5.43
2022-09-03T20:38:03.825Z,5.33
2022-09-03T20:40:44.520Z,4.77
2022-09-03T20:43:41.694Z,6.07
2022-09-03T20:46:27.731Z,3.97
2022-09-03T20:49:07.768Z,4.40
2022-09-03T20:51:44.252Z,3.63
2022-09-03T20:54:15.481Z,20.53
2022-09-03T20:57:18.105Z,3.27
2022-09-03T21:00:03.897Z,2.77
2022-09-03T21:02:53.436Z,4.83
2022-09-03T21:05:29.033Z,3.00
2022-09-03T21:08:11.876Z,2.70
2022-09-03T21:10:50.025Z,2.30
2022-09-03T21:13:38.206Z,2.33
2022-09-03T21:16:25.308Z,1.77
2022-09-03T21:19:05.938Z,2.30
2022-09-03T21:21:49.105Z,2.20
2022-09-03T21:24:22.085Z,1.57
2022-09-03T21:26:57.102Z,2.07
2022-09-03T21:29:30.637Z,2.07
2022-09-03T21:32:06.030Z,1.83
2022-09-03T21:34:42.105Z,2.27
2022-09-03T21:37:13.956Z,2.17
2022-09-03T21:39:45.536Z,2.30
2022-09-03T21:42:22.449Z,2.30
2022-09-03T21:45:01.442Z,2.40
2022-09-03T21:47:32.128Z,2.17
2022-09-03T21:50:14.399Z,2.03
2022-09-03T21:52:53.246Z,2.30
2022-09-03T21:55:28.926Z,2.60
2022-09-03T21:58:17.275Z,3.07
2022-09-03T22:00:49.593Z,2.10
2022-09-03T22:03:18.288Z,2.67
2022-09-03T22:05:55.544Z,3.40
2022-09-03T22:08:31.887Z,3.43
2022-09-03T22:11:09.226Z,2.53
2022-09-03T22:13:48.509Z,3.10
2022-09-03T22:16:26.755Z,2.57
2022-09-03T22:18:55.850Z,2.70
2022-09-03T22:21:34.097Z,2.97
2022-09-03T22:24:14.706Z,3.03
2022-09-03T22:26:52.263Z,3.13
2022-09-03T22:29:37.637Z,2.97
2022-09-03T22:32:24.852Z,2.40
2022-09-03T22:35:18.808Z,2.03
2022-09-03T22:38:04.173Z,2.17
2022-09-03T22:40:41.043Z,2.43
2022-09-03T22:43:35.236Z,2.30
2022-09-03T22:46:14.140Z,2.00
2022-09-03T22:49:15.849Z,2.20
2022-09-03T22:52:02.673Z,2.13
2022-09-03T22:54:48.009Z,2.60
2022-09-03T22:57:19.605Z,2.53
2022-09-03T22:59:59.128Z,2.10
2022-09-03T23:02:30.650Z,3.40
2022-09-03T23:05:07.347Z,2.67
2022-09-03T23:07:49.736Z,2.50
2022-09-03T23:10:26.092Z,2.47
2022-09-03T23:13:05.590Z,2.17
2022-09-03T23:15:37.445Z,1.80
2022-09-03T23:18:10.790Z,2.37
2022-09-03T23:20:45.832Z,1.87
2022-09-03T23:23:19.524Z,2.10
2022-09-03T23:25:54.919Z,2.17
2022-09-03T23:28:29.499Z,2.47
2022-09-03T23:31:11.381Z,1.90
2022-09-03T23:33:40.813Z,2.60
2022-09-03T23:36:51.006Z,2.10
2022-09-03T23:39:28.295Z,2.17
2022-09-03T23:42:11.994Z,2.40
2022-09-03T23:44:59.106Z,2.40
2022-09-03T23:47:42.240Z,1.67
2022-09-03T23:50:29.014Z,1.70
2022-09-03T23:53:25.373Z,1.67
2022-09-03T23:56:13.728Z,1.73
2022-09-03T23:58:57.117Z,1.70
